Time;durP1;ratioP1;P1;durP2;ratioP2;P2;SDS_P1;SDS_P2;PMS_P1;PMS_P2;Temp;Humidity;BMP_temperature;BMP_pressure;BME280_temperature;BME280_humidity;BME280_pressure;Samples;Min_cycle;Max_cycle;Signal;HPM_P1;HPM_P2
2022/09/30 04:38:40;;;;;;;36.90;21.35;;;;;;;16.95;100.00;99667.31;1721655;80;21052;-48
2022/09/30 04:41:07;;;;;;;30.25;22.10;;;;;;;16.98;100.00;99667.19;1751421;80;21054;-39
2022/09/30 04:43:33;;;;;;;36.48;23.05;;;;;;;16.99;100.00;99669.41;1751664;80;21012;-46
2022/09/30 04:46:00;;;;;;;42.15;23.87;;;;;;;17.00;100.00;99672.44;1755344;80;21027;-40
2022/09/30 04:48:29;;;;;;;37.70;23.57;;;;;;;17.03;100.00;99665.25;1752072;80;21049;-39
2022/09/30 04:50:58;;;;;;;36.58;24.77;;;;;;;17.06;100.00;99668.25;1755007;80;21653;-47
2022/09/30 04:53:24;;;;;;;45.80;24.55;;;;;;;17.11;100.00;99682.17;1750342;81;21016;-47
2022/09/30 04:55:53;;;;;;;35.88;23.83;;;;;;;17.14;100.00;99671.47;1767167;80;21079;-40
2022/09/30 04:58:19;;;;;;;37.95;23.07;;;;;;;17.18;100.00;99670.91;1713587;82;21052;-46
2022/09/30 05:00:46;;;;;;;30.72;21.93;;;;;;;17.21;100.00;99673.42;1740475;80;21056;-47
2022/09/30 05:03:14;;;;;;;40.25;23.80;;;;;;;17.24;100.00;99680.80;1728257;80;21108;-47
2022/09/30 05:05:43;;;;;;;40.78;22.98;;;;;;;17.25;100.00;99674.58;1728438;82;20993;-46
2022/09/30 05:08:10;;;;;;;33.35;22.85;;;;;;;17.29;100.00;99686.77;1733161;81;21056;-46
2022/09/30 05:10:38;;;;;;;37.53;23.45;;;;;;;17.32;100.00;99676.53;1728584;80;21567;-39
2022/09/30 05:13:05;;;;;;;37.05;25.65;;;;;;;17.34;100.00;99687.94;1733301;82;20988;-39
2022/09/30 05:15:33;;;;;;;36.73;24.95;;;;;;;17.36;100.00;99685.22;1732532;80;21028;-46
2022/09/30 05:18:01;;;;;;;39.08;25.32;;;;;;;17.38;100.00;99686.88;1707539;80;20997;-39
2022/09/30 05:20:27;;;;;;;40.58;24.47;;;;;;;17.40;100.00;99689.48;1732809;80;20988;-39
2022/09/30 05:22:55;;;;;;;43.35;25.32;;;;;;;17.44;100.00;99697.68;1732614;80;20980;-39
2022/09/30 05:25:22;;;;;;;32.90;24.00;;;;;;;17.45;100.00;99693.68;1731164;80;21056;-47
2022/09/30 05:27:50;;;;;;;40.28;25.10;;;;;;;17.48;100.00;99698.84;1729025;80;21528;-47
2022/09/30 05:30:18;;;;;;;40.25;24.12;;;;;;;17.52;100.00;99699.60;1726994;80;21024;-39
2022/09/30 05:32:45;;;;;;;41.73;25.37;;;;;;;17.57;100.00;99708.22;1732750;80;20976;-47
2022/09/30 05:35:11;;;;;;;40.17;24.25;;;;;;;17.61;100.00;99708.95;1727999;80;21024;-46
2022/09/30 05:37:38;;;;;;;42.45;25.43;;;;;;;17.63;100.00;99707.12;1730386;80;20973;-39
2022/09/30 05:40:07;;;;;;;30.65;22.15;;;;;;;17.67;100.00;99716.19;1725749;81;21375;-47
2022/09/30 05:42:34;;;;;;;37.58;24.45;;;;;;;17.70;100.00;99713.91;1724629;81;20977;-40
2022/09/30 05:45:05;;;;;;;39.92;25.20;;;;;;;17.73;100.00;99711.16;1717370;81;21032;-39
2022/09/30 05:47:34;;;;;;;38.70;23.45;;;;;;;17.78;100.00;99713.17;1716234;81;20989;-39
2022/09/30 05:50:03;;;;;;;37.17;24.43;;;;;;;17.81;100.00;99713.92;1721559;81;21899;-39
2022/09/30 05:52:31;;;;;;;34.78;24.32;;;;;;;17.85;100.00;99715.11;1730635;81;21012;-47
2022/09/30 05:54:59;;;;;;;40.05;26.27;;;;;;;17.88;100.00;99713.69;1724081;81;21617;-39
2022/09/30 05:57:29;;;;;;;41.73;25.85;;;;;;;17.89;100.00;99716.27;1722856;81;21887;-39
2022/09/30 05:59:56;;;;;;;47.00;28.77;;;;;;;17.92;100.00;99715.30;1717847;81;21423;-39
2022/09/30 06:02:24;;;;;;;45.75;28.32;;;;;;;17.95;100.00;99717.34;1722856;81;21016;-40
2022/09/30 06:04:50;;;;;;;49.20;29.00;;;;;;;18.00;100.00;99722.00;1725141;81;21694;-39
2022/09/30 06:07:21;;;;;;;50.23;28.87;;;;;;;18.07;100.00;99718.64;1723321;81;21532;-47
2022/09/30 06:09:54;;;;;;;49.48;26.07;;;;;;;18.11;100.00;99714.10;1691589;81;21092;-40
2022/09/30 06:12:26;;;;;;;37.00;24.02;;;;;;;18.15;100.00;99713.92;1705499;81;20969;-38
2022/09/30 06:14:54;;;;;;;44.33;26.55;;;;;;;18.20;100.00;99719.87;1721379;81;21041;-39
2022/09/30 06:17:22;;;;;;;43.20;26.50;;;;;;;18.27;100.00;99712.56;1722155;81;20989;-47
2022/09/30 06:19:49;;;;;;;47.05;29.32;;;;;;;18.34;100.00;99712.70;1727111;81;21076;-39
2022/09/30 06:22:17;;;;;;;45.85;26.87;;;;;;;18.40;100.00;99715.10;1724772;81;21044;-39
2022/09/30 06:24:45;;;;;;;41.48;27.40;;;;;;;18.47;100.00;99714.38;1722270;81;21073;-39
2022/09/30 06:27:12;;;;;;;46.48;29.05;;;;;;;18.51;100.00;99723.47;1720269;81;20938;-39
2022/09/30 06:29:39;;;;;;;49.48;27.58;;;;;;;18.54;100.00;99723.79;1726614;81;20976;-46
2022/09/30 06:32:06;;;;;;;43.83;26.90;;;;;;;18.58;100.00;99720.95;1724762;81;20958;-47
2022/09/30 06:34:33;;;;;;;46.28;26.82;;;;;;;18.59;100.00;99719.16;1718524;81;21052;-47
2022/09/30 06:37:02;;;;;;;46.55;26.25;;;;;;;18.63;100.00;99722.09;1723568;81;20958;-40
2022/09/30 06:39:30;;;;;;;47.70;29.45;;;;;;;18.67;100.00;99721.48;1730255;80;21040;-38
2022/09/30 06:42:03;;;;;;;40.88;26.55;;;;;;;18.70;100.00;99726.23;1731119;81;20965;-38
2022/09/30 06:44:31;;;;;;;55.30;26.65;;;;;;;18.76;100.00;99731.73;1730108;81;21456;-38
2022/09/30 06:46:58;;;;;;;47.62;28.17;;;;;;;18.80;100.00;99734.66;1718435;81;21281;-39
2022/09/30 06:49:26;;;;;;;39.63;25.55;;;;;;;18.85;100.00;99741.49;1717655;81;21617;-47
2022/09/30 06:51:52;;;;;;;42.90;24.92;;;;;;;18.91;100.00;99743.02;1718705;81;21317;-47
2022/09/30 06:54:23;;;;;;;44.77;27.32;;;;;;;18.97;100.00;99748.52;1718692;81;20980;-39
2022/09/30 06:56:56;;;;;;;47.55;26.25;;;;;;;19.00;100.00;99742.61;1699905;81;21054;-39
2022/09/30 06:59:23;;;;;;;42.83;25.37;;;;;;;19.06;100.00;99750.76;1718370;81;20922;-39
2022/09/30 07:01:50;;;;;;;49.10;27.40;;;;;;;19.10;100.00;99744.41;1717650;81;21119;-39
2022/09/30 07:04:42;;;;;;;40.60;24.30;;;;;;;19.14;100.00;99749.52;1716804;81;20997;-47
2022/09/30 07:07:09;;;;;;;47.17;27.13;;;;;;;19.21;100.00;99749.24;1714836;81;21634;-40
2022/09/30 07:09:50;;;;;;;42.85;27.70;;;;;;;19.27;100.00;99755.59;1718446;81;20965;-47
2022/09/30 07:21:11;;;;;;;43.45;27.90;;;;;;;19.52;100.00;99764.64;1723448;81;21091;-41
2022/09/30 07:24:37;;;;;;;37.50;25.50;;;;;;;19.57;100.00;99763.50;1724822;81;21115;-39
2022/09/30 07:27:04;;;;;;;36.20;25.05;;;;;;;19.63;100.00;99766.38;1736226;81;21024;-47
2022/09/30 07:33:03;;;;;;;38.17;23.32;;;;;;;19.72;100.00;99777.05;1732355;81;21078;-40
2022/09/30 07:35:38;;;;;;;33.50;23.27;;;;;;;19.80;100.00;99781.53;1732480;81;21590;-47
2022/09/30 07:38:09;;;;;;;37.17;23.87;;;;;;;19.84;100.00;99785.31;1734298;81;20930;-47
2022/09/30 07:40:36;;;;;;;45.30;25.23;;;;;;;19.89;100.00;99783.77;1737261;81;21025;-40
2022/09/30 07:43:03;;;;;;;41.83;23.92;;;;;;;19.95;100.00;99777.32;1734219;81;20993;-39
2022/09/30 07:45:29;;;;;;;30.80;19.65;;;;;;;20.03;100.00;99783.12;1730233;81;21013;-47
2022/09/30 07:48:01;;;;;;;26.20;18.52;;;;;;;20.09;100.00;99776.19;1732481;81;21028;-39
2022/09/30 07:50:28;;;;;;;23.87;16.80;;;;;;;20.16;100.00;99784.25;1731878;81;22007;-38
2022/09/30 07:53:23;;;;;;;25.32;17.50;;;;;;;20.20;100.00;99780.53;1690135;81;20977;-39
2022/09/30 07:55:51;;;;;;;21.97;14.18;;;;;;;20.24;100.00;99771.96;1713096;81;21033;-38
2022/09/30 07:58:18;;;;;;;27.30;15.75;;;;;;;20.28;100.00;99773.52;1725619;81;20984;-41
2022/09/30 08:00:51;;;;;;;23.30;15.08;;;;;;;20.32;100.00;99775.95;1724514;81;20980;-40
2022/09/30 08:03:15;;;;;;;19.92;12.70;;;;;;;20.35;100.00;99774.93;1721102;81;20981;-47
2022/09/30 08:05:47;;;;;;;20.92;14.33;;;;;;;20.41;100.00;99782.63;1726136;81;21024;-49
2022/09/30 08:08:19;;;;;;;18.92;15.28;;;;;;;20.48;100.00;99779.23;1714773;81;21020;-48
2022/09/30 08:10:45;;;;;;;;;;;;;;;20.55;100.00;99785.97;1724431;81;21549;-38
2022/09/30 08:13:15;;;;;;;31.95;15.65;;;;;;;20.59;100.00;99787.55;1726064;81;20503;-40
2022/09/30 08:15:42;;;;;;;22.98;15.38;;;;;;;20.64;100.00;99785.50;1713354;81;21088;-40
2022/09/30 08:18:09;;;;;;;17.42;13.32;;;;;;;20.71;100.00;99786.47;1710489;81;21982;-39
2022/09/30 08:20:35;;;;;;;24.45;13.78;;;;;;;20.75;100.00;99796.93;1648432;86;21061;-47
2022/09/30 08:23:02;;;;;;;18.67;11.75;;;;;;;20.77;100.00;99791.09;1705249;81;21065;-39
2022/09/30 08:25:29;;;;;;;19.77;12.43;;;;;;;20.78;100.00;99788.81;1717647;81;21616;-49
2022/09/30 08:28:30;;;;;;;19.20;12.43;;;;;;;20.78;100.00;99790.15;1710604;81;21450;-47
2022/09/30 08:35:00;;;;;;;23.25;14.00;;;;;;;20.96;99.49;99792.73;1719146;81;21076;-47
2022/09/30 08:37:26;;;;;;;19.75;11.83;;;;;;;21.19;98.02;99792.03;1719175;81;20980;-46
2022/09/30 08:39:54;;;;;;;23.25;11.95;;;;;;;21.34;96.21;99799.70;1718567;80;21076;-38
2022/09/30 08:42:31;;;;;;;17.37;10.50;;;;;;;21.43;94.52;99804.09;1727378;80;21776;-46
2022/09/30 08:45:22;;;;;;;24.00;11.97;;;;;;;21.53;93.90;99799.16;1660747;84;21582;-47
2022/09/30 08:48:06;;;;;;;17.32;12.15;;;;;;;21.62;92.82;99807.10;1662297;84;20991;-39
2022/09/30 08:51:26;;;;;;;16.12;11.20;;;;;;;21.62;91.57;99804.44;1659563;84;21019;-47
2022/09/30 08:54:01;;;;;;;21.75;11.33;;;;;;;21.64;91.30;99801.25;1659191;84;21704;-47
2022/09/30 08:56:39;;;;;;;17.42;12.10;;;;;;;21.76;89.85;99800.59;1657550;84;21455;-47
2022/09/30 08:59:34;;;;;;;19.90;9.68;;;;;;;21.94;89.55;99794.27;1657013;84;21081;-47
2022/09/30 09:02:35;;;;;;;16.82;10.48;;;;;;;22.17;88.56;99803.68;1634507;84;21175;-47
2022/09/30 09:05:05;;;;;;;27.15;10.65;;;;;;;22.25;86.76;99805.44;1659710;84;22040;-39
2022/09/30 09:08:02;;;;;;;15.38;10.38;;;;;;;22.36;85.55;99814.64;1659139;84;21161;-47
2022/09/30 09:10:45;;;;;;;22.93;11.75;;;;;;;22.36;83.87;99813.30;1654885;84;21569;-46
2022/09/30 09:14:05;;;;;;;27.32;11.55;;;;;;;22.21;83.74;99811.05;1659488;84;21046;-39
2022/09/30 09:17:00;;;;;;;19.17;9.55;;;;;;;22.07;84.87;99811.75;1660868;84;21105;-39
2022/09/30 09:19:37;;;;;;;16.65;9.40;;;;;;;22.16;84.89;99810.44;1626196;86;21070;-39
2022/09/30 09:22:37;;;;;;;33.55;10.80;;;;;;;22.31;84.79;99817.08;1658045;83;21008;-39
2022/09/30 09:25:28;;;;;;;17.70;9.85;;;;;;;22.48;84.76;99820.61;1703435;83;21015;-39
2022/09/30 09:28:32;;;;;;;13.93;8.73;;;;;;;22.69;82.70;99825.20;1701797;83;21108;-47
2022/09/30 09:30:59;;;;;;;18.82;8.15;;;;;;;22.79;80.46;99819.26;1637228;86;21523;-41
2022/09/30 09:33:38;;;;;;;25.30;11.63;;;;;;;22.82;79.32;99820.88;1703106;83;21031;-47
2022/09/30 09:36:32;;;;;;;15.43;10.13;;;;;;;22.77;79.68;99818.47;1711600;83;21692;-47
2022/09/30 09:40:10;;;;;;;13.08;8.68;;;;;;;22.71;79.87;99821.48;1693801;83;20995;-47
2022/09/30 09:43:42;;;;;;;23.07;10.43;;;;;;;22.67;78.43;99817.75;1703912;83;21062;-39
2022/09/30 09:46:31;;;;;;;14.30;8.45;;;;;;;22.69;80.09;99823.87;1700923;83;21023;-47
2022/09/30 09:49:22;;;;;;;15.80;8.70;;;;;;;22.79;78.18;99828.59;1703479;83;21629;-47
2022/09/30 09:52:13;;;;;;;17.65;10.43;;;;;;;22.86;78.40;99835.76;1686319;83;21042;-39
2022/09/30 09:54:49;;;;;;;21.87;9.20;;;;;;;22.86;78.40;99835.76;1696339;80;20981;-47
2022/09/30 09:57:26;;;;;;;13.70;8.73;;;;;;;22.83;79.06;99835.44;1737068;80;20992;-39
2022/09/30 10:03:18;;;;;;;;;;;;;;;22.77;79.01;99841.61;1717532;80;21071;-39
2022/09/30 10:06:05;;;;;;;18.00;9.80;;;;;;;22.83;79.84;99832.77;1720610;80;20126;-39
2022/09/30 10:08:35;;;;;;;12.15;8.38;;;;;;;23.29;77.96;99832.77;1734421;80;21000;-49
2022/09/30 10:11:06;;;;;;;19.07;9.25;;;;;;;23.29;77.96;99832.77;1723790;80;20992;-47
2022/09/30 10:13:42;;;;;;;12.37;8.43;;;;;;;23.56;74.36;99833.41;1716091;80;20977;-47
2022/09/30 10:16:34;;;;;;;18.05;8.23;;;;;;;23.56;74.36;99833.41;1682326;82;21413;-48
2022/09/30 10:19:03;;;;;;;15.35;8.93;;;;;;;23.52;73.99;99835.39;1656654;84;21610;-39
2022/09/30 10:21:31;;;;;;;15.55;8.28;;;;;;;23.60;74.31;99836.28;1657337;84;21115;-47
2022/09/30 10:23:58;;;;;;;16.55;9.00;;;;;;;23.95;72.79;99834.14;1682855;84;20976;-47
2022/09/30 10:26:26;;;;;;;16.10;8.13;;;;;;;24.51;71.95;99830.16;1727350;80;21008;-48
2022/09/30 10:28:57;;;;;;;18.82;7.35;;;;;;;25.21;70.40;99822.83;1680544;84;21035;-46
2022/09/30 10:31:29;;;;;;;17.23;7.50;;;;;;;25.92;66.78;99818.84;1663766;84;21520;-42
2022/09/30 10:34:20;;;;;;;10.32;6.20;;;;;;;26.52;64.63;99813.56;1682667;83;21502;-39
2022/09/30 10:36:47;;;;;;;11.25;5.97;;;;;;;27.03;60.65;99809.30;1737964;80;21584;-48
2022/09/30 10:39:35;;;;;;;15.85;6.17;;;;;;;27.12;58.51;99817.64;1740775;80;20969;-47
2022/09/30 10:42:24;;;;;;;12.50;6.85;;;;;;;26.87;58.67;99817.28;1734440;80;20970;-47
2022/09/30 10:45:02;;;;;;;11.50;6.87;;;;;;;26.40;58.97;99819.80;1729196;81;22023;-46
2022/09/30 10:47:29;;;;;;;16.40;6.55;;;;;;;26.24;59.97;99826.75;1734118;80;21024;-46
2022/09/30 10:50:09;;;;;;;9.75;6.40;;;;;;;26.31;60.67;99821.80;1745333;81;21432;-46
2022/09/30 10:52:47;;;;;;;11.68;6.12;;;;;;;26.78;60.33;99824.17;1730451;80;21569;-49
2022/09/30 10:55:27;;;;;;;13.53;6.00;;;;;;;27.16;57.80;99828.53;1724983;80;21112;-40
2022/09/30 10:57:53;;;;;;;14.87;5.47;;;;;;;27.25;57.53;99827.81;1739645;80;21004;-40
2022/09/30 11:00:24;;;;;;;15.88;6.12;;;;;;;27.11;56.78;99832.05;1746016;81;21479;-41
2022/09/30 11:03:13;;;;;;;14.28;6.33;;;;;;;26.80;57.10;99824.94;1747095;80;21016;-41
2022/09/30 11:05:43;;;;;;;14.78;6.00;;;;;;;26.53;58.34;99827.83;1749721;80;21072;-41
2022/09/30 11:08:34;;;;;;;15.88;5.62;;;;;;;26.34;59.18;99830.12;1754915;80;20985;-49
2022/09/30 11:11:13;;;;;;;12.90;5.90;;;;;;;26.29;58.87;99822.89;1739563;81;21079;-49
2022/09/30 11:14:10;;;;;;;13.55;5.50;;;;;;;26.35;59.27;99817.94;1713395;81;20973;-40
2022/09/30 11:17:18;;;;;;;7.67;4.65;;;;;;;26.40;59.35;99814.92;1737991;80;21584;-40
2022/09/30 11:20:07;;;;;;;10.08;5.58;;;;;;;26.22;58.73;99823.34;1727964;82;20984;-49
2022/09/30 11:23:03;;;;;;;14.33;6.05;;;;;;;25.85;59.56;99820.22;1728640;80;20960;-49
2022/09/30 11:25:57;;;;;;;9.30;5.47;;;;;;;25.58;60.20;99823.00;1742132;80;21009;-40
2022/09/30 11:28:36;;;;;;;10.98;5.85;;;;;;;25.38;60.78;99825.70;1742899;80;21475;-41
2022/09/30 11:31:36;;;;;;;9.20;4.92;;;;;;;25.19;61.73;99824.77;1729569;80;21025;-42
2022/09/30 11:34:35;;;;;;;12.47;6.03;;;;;;;25.10;62.73;99820.02;1734719;82;21008;-40
2022/09/30 11:37:26;;;;;;;9.23;5.65;;;;;;;25.07;62.47;99815.75;1725377;80;20949;-51
2022/09/30 11:40:29;;;;;;;9.83;4.78;;;;;;;25.08;62.52;99821.47;1671377;84;21752;-50
2022/09/30 11:43:10;;;;;;;10.13;5.35;;;;;;;25.01;62.58;99831.33;1630896;86;21017;-51
2022/09/30 11:46:12;;;;;;;13.72;5.83;;;;;;;24.85;63.13;99825.66;1666097;85;21556;-42
2022/09/30 11:49:05;;;;;;;12.45;6.12;;;;;;;24.72;63.13;99829.25;1656070;85;21609;-43
2022/09/30 11:51:57;;;;;;;11.93;5.70;;;;;;;24.52;64.42;99831.88;1656340;85;21145;-51
2022/09/30 11:54:47;;;;;;;14.28;5.78;;;;;;;24.34;65.29;99833.44;1611291;88;21403;-51
2022/09/30 11:57:25;;;;;;;10.80;5.33;;;;;;;24.20;66.05;99833.45;1657490;85;21111;-50
2022/09/30 12:00:00;;;;;;;9.68;5.53;;;;;;;24.11;66.85;99831.34;1647840;87;21041;-50
2022/09/30 12:02:42;;;;;;;11.43;5.37;;;;;;;24.05;67.42;99831.25;1674349;85;21028;-51
2022/09/30 12:05:21;;;;;;;;;;;;;;;24.03;67.52;99830.50;1682607;85;21038;-51
2022/09/30 12:08:20;;;;;;;11.18;5.47;;;;;;;24.00;67.84;99839.17;1649968;85;20142;-51
2022/09/30 12:11:04;;;;;;;11.00;5.90;;;;;;;23.94;67.28;99823.53;1679551;82;21107;-43
2022/09/30 12:13:38;;;;;;;13.40;5.28;;;;;;;23.99;67.70;99828.11;1722283;81;21079;-41
2022/09/30 12:16:13;;;;;;;16.52;5.53;;;;;;;24.13;67.98;99824.11;1720092;81;21047;-51
2022/09/30 12:18:47;;;;;;;12.85;5.85;;;;;;;24.30;67.62;99826.56;1738657;82;21515;-42
